Columbus, Ohio
Traffic Map
Current Weather Conditions
Columbus, Ohio
Overcast Moderate Rain
Overcast
16°
Feels Like: 16°
Wind Chill: 16° Ceiling: 4800
Heat Index: 16° Visibility: 2.5mi
Dew Point: 13° Wind: 16mph
Humidity: 82% Direction: 110° (ESE)
Pressure: 29.66in Gusts: 30mph
Raw Report DataKCMH 192101Z 11014G26KT 2 1/2SM RA BKN048 BKN060 OVC075 16/13 A2966 RMK AO2 PK WND 11026/2057 P0002
Traffic Incident Summary
Active as of:
Severity:
Category:
InformationThere was an issue retrieving the traffic information for this location. Please try a different location or try again shortly.
Advertisements
Track Severe Weather on mobile